createdAt,value
2017-03-20T00:00:30.921Z,20.7
2017-03-20T00:01:32.985Z,20.7
2017-03-20T00:02:35.050Z,20.7
2017-03-20T00:03:37.117Z,20.7
2017-03-20T00:04:39.172Z,20.7
2017-03-20T00:05:41.243Z,20.8
2017-03-20T00:06:43.310Z,20.8
2017-03-20T00:07:45.373Z,20.8
2017-03-20T00:08:47.431Z,20.8
2017-03-20T00:09:49.508Z,20.8
2017-03-20T00:10:51.574Z,20.8
2017-03-20T00:11:53.628Z,20.8
2017-03-20T00:12:55.673Z,20.8
2017-03-20T00:13:57.753Z,20.8
2017-03-20T00:14:59.908Z,20.8
2017-03-20T00:16:01.884Z,20.8
2017-03-20T00:17:03.945Z,20.9
2017-03-20T00:18:06.016Z,20.9
2017-03-20T00:19:08.075Z,20.9
2017-03-20T00:20:10.152Z,20.9
2017-03-20T00:21:12.306Z,20.9
2017-03-20T00:22:14.288Z,20.9
2017-03-20T00:23:16.339Z,20.9
2017-03-20T00:24:18.407Z,20.9
2017-03-20T00:25:20.476Z,20.9
2017-03-20T00:26:22.547Z,20.9
2017-03-20T00:27:24.600Z,20.9
2017-03-20T00:28:26.675Z,20.9
2017-03-20T00:29:28.734Z,20.9
2017-03-20T00:30:30.807Z,20.9
2017-03-20T00:31:32.875Z,20.9
2017-03-20T00:32:34.941Z,21
2017-03-20T00:33:36.998Z,20.9
2017-03-20T00:34:39.070Z,21
2017-03-20T00:35:41.127Z,20.9
2017-03-20T00:36:43.199Z,20.9
2017-03-20T00:37:45.249Z,21
2017-03-20T00:38:47.307Z,21
2017-03-20T00:39:49.369Z,21
2017-03-20T00:40:51.428Z,21
2017-03-20T00:41:53.503Z,21
2017-03-20T00:42:55.592Z,21
2017-03-20T00:43:57.636Z,21
2017-03-20T00:44:59.718Z,21
2017-03-20T00:46:01.769Z,21
2017-03-20T00:47:03.834Z,21
2017-03-20T00:48:05.905Z,21
2017-03-20T00:49:07.961Z,21.1
2017-03-20T00:50:10.043Z,21
2017-03-20T00:51:12.104Z,21.1
2017-03-20T00:52:14.165Z,21.1
2017-03-20T00:53:16.226Z,21.1
2017-03-20T00:54:18.281Z,21.1
2017-03-20T00:55:20.358Z,21.1
2017-03-20T00:56:22.418Z,21.1
2017-03-20T00:57:24.507Z,21.1
2017-03-20T00:58:26.553Z,21.1
2017-03-20T00:59:28.622Z,21.1
2017-03-20T01:00:30.680Z,21.1
2017-03-20T01:01:32.741Z,21.1
2017-03-20T01:02:34.806Z,21.1
2017-03-20T01:03:36.856Z,21.2
2017-03-20T01:04:38.924Z,21.1
2017-03-20T01:05:41.031Z,21.1
2017-03-20T01:06:43.043Z,21.2
2017-03-20T01:07:45.106Z,21.1
2017-03-20T01:08:47.173Z,21.1
2017-03-20T01:09:49.239Z,21.1
2017-03-20T01:10:51.299Z,21.1
2017-03-20T01:11:53.363Z,21.1
2017-03-20T01:12:55.419Z,21.1
2017-03-20T01:13:57.476Z,21.1
2017-03-20T01:14:59.542Z,21.1
2017-03-20T01:16:01.635Z,21.1
2017-03-20T01:17:03.678Z,21.1
2017-03-20T01:18:05.742Z,21.1
2017-03-20T01:19:07.803Z,21.1
2017-03-20T01:20:10.217Z,21.1
2017-03-20T01:21:11.941Z,21.1
2017-03-20T01:22:14.007Z,21.2
2017-03-20T01:23:16.062Z,21.1
2017-03-20T01:24:18.123Z,21.1
2017-03-20T01:25:20.190Z,21.1
2017-03-20T01:26:22.254Z,21.1
2017-03-20T01:27:24.284Z,21.1
2017-03-20T01:28:26.344Z,21.1
2017-03-20T01:29:28.404Z,21.1
2017-03-20T01:30:30.475Z,21.1
2017-03-20T01:31:32.520Z,21.1
2017-03-20T01:32:34.578Z,21.1
2017-03-20T01:33:36.634Z,21.1
2017-03-20T01:34:38.713Z,21.1
2017-03-20T01:35:40.774Z,21.1
2017-03-20T01:36:42.849Z,21.1
2017-03-20T01:37:44.905Z,21.1
2017-03-20T01:38:46.968Z,21.1
2017-03-20T01:39:49.025Z,21.1
2017-03-20T01:40:51.080Z,21.1
2017-03-20T01:41:53.145Z,21.1
2017-03-20T01:42:55.220Z,21.1
2017-03-20T01:43:57.278Z,21.1
2017-03-20T01:44:59.343Z,21.1
2017-03-20T01:46:01.406Z,21.1
2017-03-20T01:47:03.473Z,21.1
2017-03-20T01:48:05.542Z,21.1
2017-03-20T01:49:07.593Z,21.1
2017-03-20T01:50:09.671Z,21
2017-03-20T01:51:11.721Z,21.1
2017-03-20T01:52:13.796Z,21.1
2017-03-20T01:53:15.841Z,21
2017-03-20T01:54:17.918Z,21.1
2017-03-20T01:55:19.985Z,21.1
2017-03-20T01:56:22.040Z,21.1
2017-03-20T01:57:24.101Z,21
2017-03-20T01:58:26.160Z,21
2017-03-20T01:59:28.231Z,21
2017-03-20T02:00:30.285Z,21.1
2017-03-20T02:01:32.351Z,21
2017-03-20T02:02:34.424Z,21
2017-03-20T02:03:36.491Z,21
2017-03-20T02:04:38.563Z,21
2017-03-20T02:05:40.620Z,21
2017-03-20T02:06:42.687Z,21
2017-03-20T02:07:44.742Z,21
2017-03-20T02:08:46.803Z,21
2017-03-20T02:09:48.863Z,21
2017-03-20T02:10:50.925Z,21
2017-03-20T02:11:52.993Z,21
2017-03-20T02:12:55.048Z,21
2017-03-20T02:13:57.115Z,21
2017-03-20T02:14:59.170Z,21
2017-03-20T02:16:01.233Z,21
2017-03-20T02:17:03.288Z,21
2017-03-20T02:18:05.355Z,21
2017-03-20T02:19:07.424Z,21
2017-03-20T02:20:09.488Z,21
2017-03-20T02:21:11.543Z,21
2017-03-20T02:22:13.596Z,21
2017-03-20T02:23:15.660Z,21
2017-03-20T02:24:17.712Z,21
2017-03-20T02:25:19.777Z,21
2017-03-20T02:26:21.834Z,20.9
2017-03-20T02:27:23.891Z,21
2017-03-20T02:28:25.944Z,20.9
2017-03-20T02:29:27.999Z,20.9
2017-03-20T02:30:30.064Z,20.9
2017-03-20T02:31:32.115Z,20.9
2017-03-20T02:32:34.188Z,20.9
2017-03-20T02:33:36.267Z,20.9
2017-03-20T02:34:38.322Z,20.9
2017-03-20T02:35:40.390Z,20.9
2017-03-20T02:36:42.456Z,20.9
2017-03-20T02:37:44.514Z,20.9
2017-03-20T02:38:46.582Z,20.9
2017-03-20T02:39:48.656Z,20.9
2017-03-20T02:40:50.709Z,20.9
2017-03-20T02:41:52.766Z,20.9
2017-03-20T02:42:54.831Z,20.9
2017-03-20T02:43:56.960Z,20.9
2017-03-20T02:44:58.940Z,20.9
2017-03-20T02:46:00.999Z,20.9
2017-03-20T02:47:03.051Z,20.9
2017-03-20T02:48:05.108Z,20.8
2017-03-20T02:49:07.167Z,20.8
2017-03-20T02:50:09.246Z,20.8
2017-03-20T02:51:11.291Z,20.8
2017-03-20T02:52:13.375Z,20.8
2017-03-20T02:53:15.413Z,20.8
2017-03-20T02:54:17.480Z,20.8
2017-03-20T02:55:19.543Z,20.8
2017-03-20T02:56:21.609Z,20.8
2017-03-20T02:57:23.653Z,20.8
2017-03-20T02:58:25.722Z,20.8
2017-03-20T02:59:27.776Z,20.8
2017-03-20T03:00:29.841Z,20.8
2017-03-20T03:01:31.908Z,20.8
2017-03-20T03:02:33.962Z,20.7
2017-03-20T03:03:36.163Z,20.8
2017-03-20T03:04:38.084Z,20.7
2017-03-20T03:05:40.149Z,20.7
2017-03-20T03:06:42.215Z,20.7
2017-03-20T03:07:44.284Z,20.7
2017-03-20T03:08:46.342Z,20.7
2017-03-20T03:09:48.411Z,20.7
2017-03-20T03:10:50.465Z,20.7
2017-03-20T03:11:52.537Z,20.7
2017-03-20T03:12:54.601Z,20.7
2017-03-20T03:13:56.667Z,20.7
2017-03-20T03:14:58.728Z,20.7
2017-03-20T03:16:00.790Z,20.7
2017-03-20T03:17:02.848Z,20.7
2017-03-20T03:18:04.907Z,20.7
2017-03-20T03:19:06.971Z,20.7
2017-03-20T03:20:09.038Z,20.7
2017-03-20T03:21:11.106Z,20.7
2017-03-20T03:22:13.167Z,20.7
2017-03-20T03:23:15.237Z,20.7
2017-03-20T03:24:17.291Z,20.7
2017-03-20T03:25:19.351Z,20.7
2017-03-20T03:26:21.408Z,20.7
2017-03-20T03:27:23.481Z,20.7
2017-03-20T03:28:25.537Z,20.7
2017-03-20T03:29:27.620Z,20.7
2017-03-20T03:30:29.671Z,20.7
2017-03-20T03:31:31.722Z,20.7
2017-03-20T03:32:33.781Z,20.7
2017-03-20T03:33:35.846Z,20.7
2017-03-20T03:34:37.909Z,20.7
2017-03-20T03:35:39.982Z,20.7
2017-03-20T03:36:42.041Z,20.7
2017-03-20T03:37:44.109Z,20.7
2017-03-20T03:38:46.173Z,20.7
2017-03-20T03:39:48.232Z,20.7
2017-03-20T03:40:50.291Z,20.7
2017-03-20T03:41:52.356Z,20.7
2017-03-20T03:42:54.421Z,20.6
2017-03-20T03:43:56.487Z,20.7
2017-03-20T03:44:58.523Z,20.6
2017-03-20T03:46:00.585Z,20.7
2017-03-20T03:47:02.652Z,20.7
2017-03-20T03:48:04.699Z,20.7
2017-03-20T03:49:06.762Z,20.7
2017-03-20T03:50:08.822Z,20.7
2017-03-20T03:51:10.883Z,20.7
2017-03-20T03:52:12.949Z,20.7
2017-03-20T03:53:15.013Z,20.7
2017-03-20T03:54:17.078Z,20.7
2017-03-20T03:55:19.136Z,20.7
2017-03-20T03:56:21.203Z,20.7
2017-03-20T03:57:23.261Z,20.7
2017-03-20T03:58:25.322Z,20.7
2017-03-20T03:59:27.390Z,20.7
2017-03-20T04:00:29.448Z,20.7
2017-03-20T04:01:31.526Z,20.7
2017-03-20T04:02:33.597Z,20.7
2017-03-20T04:03:35.654Z,20.7
2017-03-20T04:04:37.716Z,20.7
2017-03-20T04:05:39.777Z,20.7
2017-03-20T04:06:41.846Z,20.7
2017-03-20T04:07:43.906Z,20.7
2017-03-20T04:08:45.967Z,20.7
2017-03-20T04:09:48.038Z,20.7
2017-03-20T04:10:50.097Z,20.7
2017-03-20T04:11:52.156Z,20.7
2017-03-20T04:12:54.232Z,20.7
2017-03-20T04:13:56.299Z,20.7
2017-03-20T04:14:58.359Z,20.7
2017-03-20T04:16:00.423Z,20.8
2017-03-20T04:17:02.487Z,20.7
2017-03-20T04:18:04.542Z,20.7
2017-03-20T04:19:06.609Z,20.7
2017-03-20T04:20:08.672Z,20.7
2017-03-20T04:21:10.709Z,20.8
2017-03-20T04:22:12.780Z,20.7
2017-03-20T04:23:14.842Z,20.8
2017-03-20T04:24:16.912Z,20.8
2017-03-20T04:25:18.983Z,20.8
2017-03-20T04:26:21.026Z,20.8
2017-03-20T04:27:23.083Z,20.8
2017-03-20T04:28:25.147Z,20.8
2017-03-20T04:29:27.207Z,20.8
2017-03-20T04:30:29.265Z,20.8
2017-03-20T04:31:31.318Z,20.8
2017-03-20T04:32:33.381Z,20.8
2017-03-20T04:33:35.442Z,20.8
2017-03-20T04:34:37.511Z,20.8
2017-03-20T04:35:39.584Z,20.8
2017-03-20T04:36:41.648Z,20.8
2017-03-20T04:37:43.714Z,20.8
2017-03-20T04:38:45.772Z,20.9
2017-03-20T04:39:47.840Z,20.9
2017-03-20T04:40:49.916Z,20.9
2017-03-20T04:41:51.974Z,20.8
2017-03-20T04:42:54.026Z,20.9
2017-03-20T04:43:56.085Z,20.9
2017-03-20T04:44:58.147Z,20.9
2017-03-20T04:46:00.200Z,20.9
2017-03-20T04:47:02.265Z,20.9
2017-03-20T04:48:04.434Z,20.9
2017-03-20T04:49:06.396Z,20.9
2017-03-20T04:50:08.560Z,20.9
2017-03-20T04:51:10.527Z,20.9
2017-03-20T04:52:12.579Z,20.9
2017-03-20T04:53:14.657Z,21
2017-03-20T04:54:16.711Z,20.9
2017-03-20T04:55:18.770Z,21
2017-03-20T04:56:20.836Z,21
2017-03-20T04:57:22.891Z,21
2017-03-20T04:58:24.945Z,21
2017-03-20T04:59:27.006Z,21
2017-03-20T05:00:29.119Z,21
2017-03-20T05:01:31.225Z,21
2017-03-20T05:02:33.206Z,21
2017-03-20T05:03:35.259Z,21
2017-03-20T05:04:37.320Z,21
2017-03-20T05:05:39.399Z,21
2017-03-20T05:06:41.450Z,21
2017-03-20T05:07:43.510Z,21
2017-03-20T05:08:45.579Z,21
2017-03-20T05:09:47.631Z,21
2017-03-20T05:10:49.676Z,21.1
2017-03-20T05:11:51.741Z,21.1
2017-03-20T05:12:53.801Z,21.1
2017-03-20T05:13:55.865Z,21.1
2017-03-20T05:14:57.929Z,21.1
2017-03-20T05:15:59.993Z,21.1
2017-03-20T05:17:02.052Z,21.1
2017-03-20T05:18:04.116Z,21.1
2017-03-20T05:19:06.154Z,21.1
2017-03-20T05:20:08.221Z,21.2
2017-03-20T05:21:10.273Z,21.1
2017-03-20T05:22:12.323Z,21.2
2017-03-20T05:23:14.373Z,21.1
2017-03-20T05:24:16.431Z,21.2
2017-03-20T05:25:18.494Z,21.2
2017-03-20T05:26:20.549Z,21.1
2017-03-20T05:27:22.606Z,21.1
2017-03-20T05:28:24.662Z,21.1
2017-03-20T05:29:26.723Z,21.2
2017-03-20T05:30:28.785Z,21.1
2017-03-20T05:31:30.853Z,21.2
2017-03-20T05:32:32.904Z,21.1
2017-03-20T05:33:34.960Z,21.1
2017-03-20T05:34:37.019Z,21.1
2017-03-20T05:35:39.087Z,21.2
2017-03-20T05:36:41.156Z,21.2
2017-03-20T05:37:43.217Z,21.2
2017-03-20T05:38:45.277Z,21.1
2017-03-20T05:39:47.349Z,21.2
2017-03-20T05:40:49.427Z,21.1
2017-03-20T05:41:51.467Z,21.1
2017-03-20T05:42:53.563Z,21.2
2017-03-20T05:43:55.589Z,21.1
2017-03-20T05:44:57.654Z,21.1
2017-03-20T05:45:59.713Z,21.1
2017-03-20T05:47:01.774Z,21.1
2017-03-20T05:48:03.839Z,21.1
2017-03-20T05:49:05.899Z,21.2
2017-03-20T05:50:07.961Z,21.1
2017-03-20T05:51:10.024Z,21.1
2017-03-20T05:52:12.090Z,21.1
2017-03-20T05:53:14.155Z,21.2
2017-03-20T05:54:16.216Z,21.1
2017-03-20T05:55:18.275Z,21.1
2017-03-20T05:56:20.341Z,21.1
2017-03-20T05:57:22.403Z,21.1
2017-03-20T05:58:24.466Z,21.1
2017-03-20T05:59:26.532Z,21.1
2017-03-20T06:00:28.594Z,21.1
2017-03-20T06:01:30.657Z,21.1
2017-03-20T06:02:32.726Z,21.1
2017-03-20T06:03:34.783Z,21.1
2017-03-20T06:04:36.846Z,21.1
2017-03-20T06:05:38.913Z,21.1
2017-03-20T06:06:40.972Z,21.1
2017-03-20T06:07:43.034Z,21.1
2017-03-20T06:08:45.103Z,21.1
2017-03-20T06:09:47.163Z,21.1
2017-03-20T06:10:49.225Z,21.1
2017-03-20T06:11:51.286Z,21.1
2017-03-20T06:12:53.354Z,21.1
2017-03-20T06:13:55.416Z,21.1
2017-03-20T06:14:57.470Z,21.1
2017-03-20T06:15:59.536Z,21.1
2017-03-20T06:17:01.601Z,21.1
2017-03-20T06:18:03.658Z,21.1
2017-03-20T06:19:05.724Z,21.1
2017-03-20T06:20:07.786Z,21.1
2017-03-20T06:21:09.850Z,21.1
2017-03-20T06:22:11.906Z,21.1
2017-03-20T06:23:13.979Z,21.1
2017-03-20T06:24:16.037Z,21.1
2017-03-20T06:25:18.091Z,21.1
2017-03-20T06:26:20.158Z,21
2017-03-20T06:27:22.224Z,21.1
2017-03-20T06:28:24.279Z,21.1
2017-03-20T06:29:26.344Z,21.1
2017-03-20T06:30:28.378Z,21.1
2017-03-20T06:31:30.447Z,21
2017-03-20T06:32:32.514Z,21
2017-03-20T06:33:34.566Z,21
2017-03-20T06:34:36.641Z,21
2017-03-20T06:35:38.691Z,21
2017-03-20T06:36:40.753Z,21
2017-03-20T06:37:42.813Z,21
2017-03-20T06:38:44.870Z,21
2017-03-20T06:39:46.935Z,21
2017-03-20T06:40:48.989Z,21
2017-03-20T06:41:51.052Z,21
2017-03-20T06:42:53.112Z,21
2017-03-20T06:43:55.182Z,21
2017-03-20T06:44:57.247Z,21
2017-03-20T06:45:59.311Z,21
2017-03-20T06:47:01.378Z,21
2017-03-20T06:48:03.435Z,21
2017-03-20T06:49:05.495Z,21
2017-03-20T06:50:07.560Z,21
2017-03-20T06:51:09.622Z,21
2017-03-20T06:52:11.677Z,20.9
2017-03-20T06:53:13.744Z,20.9
2017-03-20T06:54:15.794Z,21
2017-03-20T06:55:17.854Z,20.9
2017-03-20T06:56:19.912Z,21
2017-03-20T06:57:21.972Z,21
2017-03-20T06:58:24.025Z,21
2017-03-20T06:59:26.096Z,21
2017-03-20T07:00:28.176Z,20.9
2017-03-20T07:01:30.230Z,21
2017-03-20T07:02:32.288Z,20.9
2017-03-20T07:03:34.351Z,21
2017-03-20T07:04:36.416Z,21
2017-03-20T07:05:38.481Z,20.9
2017-03-20T07:06:40.538Z,21
2017-03-20T07:07:42.613Z,21
2017-03-20T07:08:44.669Z,21
2017-03-20T07:09:46.727Z,21
2017-03-20T07:10:48.791Z,21
2017-03-20T07:11:50.850Z,21
2017-03-20T07:12:52.908Z,21
2017-03-20T07:13:54.977Z,21
2017-03-20T07:14:57.033Z,21
2017-03-20T07:15:59.089Z,21
2017-03-20T07:17:01.151Z,21
2017-03-20T07:18:03.207Z,21
2017-03-20T07:19:05.278Z,21.1
2017-03-20T07:20:07.339Z,21
2017-03-20T07:21:09.390Z,21
2017-03-20T07:22:11.452Z,21
2017-03-20T07:23:13.510Z,21
2017-03-20T07:24:15.571Z,21
2017-03-20T07:25:17.630Z,21
2017-03-20T07:26:19.691Z,21
2017-03-20T07:27:21.752Z,20.9
2017-03-20T07:28:23.814Z,20.9
2017-03-20T07:29:25.870Z,20.9
2017-03-20T07:30:27.939Z,20.9
2017-03-20T07:31:30.003Z,20.9
2017-03-20T07:32:32.067Z,20.8
2017-03-20T07:33:34.126Z,20.9
2017-03-20T07:34:36.185Z,20.8
2017-03-20T07:35:38.229Z,20.8
2017-03-20T07:36:40.292Z,20.8
2017-03-20T07:37:42.357Z,20.8
2017-03-20T07:38:44.410Z,20.8
2017-03-20T07:39:46.485Z,20.8
2017-03-20T07:40:48.543Z,20.7
2017-03-20T07:41:50.601Z,20.8
2017-03-20T07:42:52.669Z,20.8
2017-03-20T07:43:54.730Z,20.7
2017-03-20T07:44:56.782Z,20.7
2017-03-20T07:45:58.851Z,20.7
2017-03-20T07:47:00.914Z,20.7
2017-03-20T07:48:02.969Z,20.7
2017-03-20T07:49:05.034Z,20.7
2017-03-20T07:50:07.112Z,20.8
2017-03-20T07:51:09.155Z,20.8
2017-03-20T07:52:11.216Z,20.8
2017-03-20T07:53:13.268Z,20.8
2017-03-20T07:54:15.330Z,20.8
2017-03-20T07:55:17.396Z,20.9
2017-03-20T07:56:19.474Z,20.9
2017-03-20T07:57:21.515Z,20.9
2017-03-20T07:58:23.562Z,20.9
2017-03-20T07:59:25.636Z,20.9
2017-03-20T08:00:27.695Z,20.9
2017-03-20T08:01:29.747Z,21
2017-03-20T08:02:31.807Z,21
2017-03-20T08:03:33.867Z,21
2017-03-20T08:04:35.938Z,21
2017-03-20T08:05:38.004Z,21
2017-03-20T08:06:40.056Z,21.1
2017-03-20T08:07:42.120Z,21.1
2017-03-20T08:08:44.188Z,21.1
2017-03-20T08:09:46.252Z,21.2
2017-03-20T08:10:48.302Z,21.2
2017-03-20T08:11:50.361Z,21.2
2017-03-20T08:12:52.430Z,21.3
2017-03-20T08:13:54.495Z,21.3
2017-03-20T08:14:56.560Z,21.3
2017-03-20T08:15:58.625Z,21.3
2017-03-20T08:17:00.691Z,21.4
2017-03-20T08:18:02.700Z,21.4
2017-03-20T08:19:04.772Z,21.4
2017-03-20T08:20:06.827Z,21.4
2017-03-20T08:21:08.932Z,21.5
2017-03-20T08:22:10.940Z,21.5
2017-03-20T08:23:13.011Z,21.5
2017-03-20T08:24:15.060Z,21.5
2017-03-20T08:25:17.136Z,21.5
2017-03-20T08:26:19.192Z,21.6
2017-03-20T08:27:21.252Z,21.6
2017-03-20T08:28:23.297Z,21.6
2017-03-20T08:29:25.352Z,21.6
2017-03-20T08:30:27.409Z,21.7
2017-03-20T08:31:29.476Z,21.7
2017-03-20T08:32:31.526Z,21.7
2017-03-20T08:33:33.592Z,21.8
2017-03-20T08:34:35.652Z,21.8
2017-03-20T08:35:37.707Z,21.8
2017-03-20T08:36:39.763Z,21.8
2017-03-20T08:37:41.822Z,21.8
2017-03-20T08:38:43.873Z,21.9
2017-03-20T08:39:45.951Z,21.9
2017-03-20T08:40:48.008Z,21.9
2017-03-20T08:41:50.069Z,22
2017-03-20T08:42:52.122Z,22
2017-03-20T08:43:54.163Z,22
2017-03-20T08:44:56.218Z,22
2017-03-20T08:45:58.286Z,22
2017-03-20T08:47:00.349Z,22
2017-03-20T08:48:02.384Z,22.1
2017-03-20T08:49:04.446Z,22.1
2017-03-20T08:50:06.518Z,22.2
2017-03-20T08:51:08.587Z,22.2
2017-03-20T08:52:10.647Z,22.2
2017-03-20T08:53:12.725Z,22.2
2017-03-20T08:54:14.758Z,22.2
2017-03-20T08:55:16.825Z,22.3
2017-03-20T08:56:18.864Z,22.3
2017-03-20T08:57:20.902Z,22.3
2017-03-20T08:58:22.948Z,22.3
2017-03-20T08:59:25.039Z,22.4
2017-03-20T09:00:27.024Z,22.4
2017-03-20T09:01:29.064Z,22.4
2017-03-20T09:02:31.112Z,22.4
2017-03-20T09:03:33.155Z,22.5
2017-03-20T09:04:35.203Z,22.5
2017-03-20T09:05:37.252Z,22.5
2017-03-20T09:06:39.297Z,22.6
2017-03-20T09:07:41.351Z,22.6
2017-03-20T09:08:43.462Z,22.6
2017-03-20T09:09:45.450Z,22.6
2017-03-20T09:10:47.496Z,22.6
2017-03-20T09:11:49.546Z,22.6
2017-03-20T09:12:51.606Z,22.7
2017-03-20T09:13:53.658Z,22.7
2017-03-20T09:14:55.828Z,22.7
2017-03-20T09:15:57.770Z,22.7
2017-03-20T09:16:59.820Z,22.8
2017-03-20T09:18:01.879Z,22.8
2017-03-20T09:19:03.941Z,22.8
2017-03-20T09:20:06.013Z,22.8
2017-03-20T09:21:08.055Z,22.8
2017-03-20T09:22:10.108Z,22.8
2017-03-20T09:23:12.169Z,22.8
2017-03-20T09:24:14.228Z,22.9
2017-03-20T09:25:16.290Z,22.9
2017-03-20T09:26:18.350Z,22.9
2017-03-20T09:27:20.412Z,22.8
2017-03-20T09:28:22.470Z,22.9
2017-03-20T09:29:24.525Z,22.9
2017-03-20T09:30:26.587Z,22.9
2017-03-20T09:31:28.652Z,22.9
2017-03-20T09:32:30.713Z,22.9
2017-03-20T09:33:32.771Z,22.9
2017-03-20T09:34:34.818Z,22.9
2017-03-20T09:35:36.879Z,22.9
2017-03-20T09:36:38.944Z,22.9
2017-03-20T09:37:41.024Z,22.9
2017-03-20T09:38:43.052Z,23
2017-03-20T09:39:45.117Z,22.9
2017-03-20T09:40:47.171Z,23
2017-03-20T09:41:49.237Z,23
2017-03-20T09:42:51.290Z,23
2017-03-20T09:43:53.357Z,23
2017-03-20T09:44:55.414Z,23
2017-03-20T09:45:57.476Z,23
2017-03-20T09:46:59.532Z,23
2017-03-20T09:48:01.592Z,23.1
2017-03-20T09:49:03.663Z,23.1
2017-03-20T09:50:05.721Z,23.1
2017-03-20T09:51:07.777Z,23.1
2017-03-20T09:52:09.962Z,23.1
2017-03-20T09:53:11.893Z,23.1
2017-03-20T09:54:13.964Z,23.1
2017-03-20T09:55:16.015Z,23.1
2017-03-20T09:56:18.066Z,23.1
2017-03-20T09:57:20.120Z,23.1
2017-03-20T09:58:22.176Z,23.1
2017-03-20T09:59:24.241Z,23.1
2017-03-20T10:00:26.295Z,23.1
2017-03-20T10:01:28.354Z,23.2
2017-03-20T10:02:30.416Z,23.2
2017-03-20T10:03:32.487Z,23.2
2017-03-20T10:04:34.529Z,23.2
2017-03-20T10:05:36.589Z,23.2
2017-03-20T10:06:38.658Z,23.2
2017-03-20T10:07:40.726Z,23.3
2017-03-20T10:08:42.768Z,23.2
2017-03-20T10:09:44.837Z,23.2
2017-03-20T10:10:46.899Z,23.2
2017-03-20T10:11:48.957Z,23.3
2017-03-20T10:12:51.025Z,23.3
2017-03-20T10:13:53.076Z,23.3
2017-03-20T10:14:55.131Z,23.3
2017-03-20T10:15:57.188Z,23.4
2017-03-20T10:16:59.248Z,23.3
2017-03-20T10:18:01.305Z,23.3
2017-03-20T10:19:03.368Z,23.3
2017-03-20T10:20:05.438Z,23.4
2017-03-20T10:21:07.489Z,23.4
2017-03-20T10:22:09.552Z,23.4
2017-03-20T10:23:11.609Z,23.4
2017-03-20T10:24:13.669Z,23.4
2017-03-20T10:25:15.731Z,23.4
2017-03-20T10:26:17.789Z,23.4
2017-03-20T10:27:19.861Z,23.4
2017-03-20T10:28:21.910Z,23.5
2017-03-20T10:29:23.969Z,23.4
2017-03-20T10:30:26.039Z,23.4
2017-03-20T10:31:28.100Z,23.5
2017-03-20T10:32:30.161Z,23.5
2017-03-20T10:33:32.212Z,23.5
2017-03-20T10:34:34.279Z,23.5
2017-03-20T10:35:36.335Z,23.5
2017-03-20T10:36:38.391Z,23.5
2017-03-20T10:37:40.567Z,23.5
2017-03-20T10:38:42.513Z,23.5
2017-03-20T10:39:44.575Z,23.5
2017-03-20T10:40:46.628Z,23.5
2017-03-20T10:41:48.714Z,23.5
2017-03-20T10:42:50.736Z,23.5
2017-03-20T10:43:52.798Z,23.6
2017-03-20T10:44:54.864Z,23.6
2017-03-20T10:45:56.934Z,23.6
2017-03-20T10:46:59.004Z,23.6
2017-03-20T10:48:01.062Z,23.6
2017-03-20T10:49:03.135Z,23.6
2017-03-20T10:50:05.194Z,23.6
2017-03-20T10:51:07.251Z,23.7
2017-03-20T10:52:09.317Z,23.6
2017-03-20T10:53:11.365Z,23.6
2017-03-20T10:54:13.516Z,23.6
2017-03-20T10:55:15.472Z,23.6
2017-03-20T10:56:17.546Z,23.7
2017-03-20T10:57:19.596Z,23.7
2017-03-20T10:58:21.656Z,23.7
2017-03-20T10:59:23.712Z,23.7
2017-03-20T11:00:25.768Z,23.7
2017-03-20T11:01:27.826Z,23.7
2017-03-20T11:02:29.878Z,23.7
2017-03-20T11:03:31.938Z,23.7
2017-03-20T11:04:33.998Z,23.7
2017-03-20T11:05:36.056Z,23.7
2017-03-20T11:06:38.115Z,23.7
2017-03-20T11:07:40.177Z,23.7
2017-03-20T11:08:42.229Z,23.7
2017-03-20T11:09:44.284Z,23.7
2017-03-20T11:10:46.347Z,23.7
2017-03-20T11:11:48.399Z,23.8
2017-03-20T11:12:50.457Z,23.8
2017-03-20T11:13:52.517Z,23.8
2017-03-20T11:14:54.567Z,23.8
2017-03-20T11:15:56.620Z,23.8
2017-03-20T11:16:58.680Z,23.8
2017-03-20T11:18:00.740Z,23.8
2017-03-20T11:19:02.802Z,23.8
2017-03-20T11:20:04.858Z,23.8
2017-03-20T11:21:07.115Z,23.8
2017-03-20T11:22:09.004Z,23.8
2017-03-20T11:23:11.029Z,23.8
2017-03-20T11:24:13.092Z,23.8
2017-03-20T11:25:15.155Z,23.9
2017-03-20T11:26:17.210Z,23.9
2017-03-20T11:27:19.270Z,23.9
2017-03-20T11:28:21.351Z,23.9
2017-03-20T11:29:23.402Z,23.9
2017-03-20T11:30:25.477Z,23.9
2017-03-20T11:31:27.521Z,23.9
2017-03-20T11:32:29.576Z,23.9
2017-03-20T11:33:31.631Z,23.9
2017-03-20T11:34:33.697Z,23.9
2017-03-20T11:35:35.748Z,24
2017-03-20T11:36:37.807Z,23.9
2017-03-20T11:37:39.853Z,24
2017-03-20T11:38:41.922Z,24
2017-03-20T11:39:43.973Z,24
2017-03-20T11:40:46.024Z,24
2017-03-20T11:41:48.072Z,24
2017-03-20T11:42:50.134Z,24
2017-03-20T11:43:52.192Z,24
2017-03-20T11:44:54.239Z,24
2017-03-20T11:45:56.308Z,24
2017-03-20T11:46:58.354Z,24
2017-03-20T11:48:00.403Z,24
2017-03-20T11:49:02.481Z,24
2017-03-20T11:50:04.526Z,24.1
2017-03-20T11:51:06.573Z,24
2017-03-20T11:52:08.634Z,24.1
2017-03-20T11:53:10.684Z,24.1
2017-03-20T11:54:12.736Z,24.1
2017-03-20T11:55:14.797Z,24.1
2017-03-20T11:56:16.853Z,24.1
2017-03-20T11:57:18.898Z,24.1
2017-03-20T11:58:20.955Z,24.1
2017-03-20T11:59:23.016Z,24.2
2017-03-20T12:00:25.068Z,24.1
2017-03-20T12:01:27.125Z,24.2
2017-03-20T12:02:29.183Z,24.2
2017-03-20T12:03:31.248Z,24.2
2017-03-20T12:04:33.296Z,24.2
2017-03-20T12:05:35.356Z,24.2
2017-03-20T12:06:37.415Z,24.2
2017-03-20T12:07:39.470Z,24.2
2017-03-20T12:08:41.521Z,24.2
2017-03-20T12:09:43.586Z,24.2
2017-03-20T12:10:45.645Z,24.2
2017-03-20T12:11:47.700Z,24.2
2017-03-20T12:12:49.754Z,24.2
2017-03-20T12:13:51.816Z,24.2
2017-03-20T12:14:53.877Z,24.2
2017-03-20T12:15:55.928Z,24.2
2017-03-20T12:16:57.990Z,24.2
2017-03-20T12:18:00.048Z,24.2
2017-03-20T12:19:02.109Z,24.2
2017-03-20T12:20:04.163Z,24.2
2017-03-20T12:21:06.217Z,24.2
2017-03-20T12:22:08.269Z,24.2
2017-03-20T12:23:10.329Z,24.2
2017-03-20T12:24:12.378Z,24.2
2017-03-20T12:25:14.437Z,24.2
2017-03-20T12:26:16.509Z,24.2
2017-03-20T12:27:18.571Z,24.2
2017-03-20T12:28:20.618Z,24.2
2017-03-20T12:29:22.681Z,24.2
2017-03-20T12:30:24.733Z,24.2
2017-03-20T12:31:26.778Z,24.2
2017-03-20T12:32:28.841Z,24.2
2017-03-20T12:33:30.901Z,24.2
2017-03-20T12:34:32.960Z,24.2
2017-03-20T12:35:35.017Z,24.2
2017-03-20T12:36:37.073Z,24.3
2017-03-20T12:37:39.130Z,24.2
2017-03-20T12:38:41.187Z,24.2
2017-03-20T12:39:43.256Z,24.2
2017-03-20T12:40:45.311Z,24.2
2017-03-20T12:41:47.366Z,24.2
2017-03-20T12:42:49.425Z,24.2
2017-03-20T12:43:51.541Z,24.2
2017-03-20T12:44:53.547Z,24.2
2017-03-20T12:45:55.592Z,24.2
2017-03-20T12:46:57.648Z,24.2
2017-03-20T12:47:59.712Z,24.2
2017-03-20T12:49:01.768Z,24.2
2017-03-20T12:50:03.821Z,24.2
2017-03-20T12:51:05.875Z,24.2
2017-03-20T12:52:07.942Z,24.2
2017-03-20T12:53:10.009Z,24.3
2017-03-20T12:54:12.061Z,24.3
2017-03-20T12:55:14.117Z,24.3
2017-03-20T12:56:16.187Z,24.2
2017-03-20T12:57:18.247Z,24.3
2017-03-20T12:58:20.308Z,24.2
2017-03-20T12:59:22.360Z,24.2
2017-03-20T13:00:24.425Z,24.3
2017-03-20T13:01:26.482Z,24.3
2017-03-20T13:02:28.532Z,24.3
2017-03-20T13:03:30.596Z,24.3
2017-03-20T13:04:32.653Z,24.2
2017-03-20T13:05:34.717Z,24.3
2017-03-20T13:06:36.779Z,24.3
2017-03-20T13:07:38.835Z,24.3
2017-03-20T13:08:40.904Z,24.3
2017-03-20T13:09:42.963Z,24.3
2017-03-20T13:10:45.024Z,24.3
2017-03-20T13:11:47.100Z,24.3
2017-03-20T13:12:49.176Z,24.3
2017-03-20T13:13:51.212Z,24.3
2017-03-20T13:14:53.267Z,24.3
2017-03-20T13:15:55.332Z,24.3
2017-03-20T13:16:57.405Z,24.3
2017-03-20T13:17:59.448Z,24.3
2017-03-20T13:19:01.509Z,24.3
2017-03-20T13:20:03.555Z,24.3
2017-03-20T13:21:05.633Z,24.3
2017-03-20T13:22:07.657Z,24.3
2017-03-20T13:23:09.715Z,24.3
2017-03-20T13:24:11.776Z,24.3
2017-03-20T13:25:13.848Z,24.3
2017-03-20T13:26:15.897Z,24.4
2017-03-20T13:27:17.967Z,24.3
2017-03-20T13:28:20.035Z,24.4
2017-03-20T13:29:22.076Z,24.3
2017-03-20T13:30:24.149Z,24.3
2017-03-20T13:31:26.198Z,24.3
2017-03-20T13:32:28.262Z,24.4
2017-03-20T13:33:30.316Z,24.3
2017-03-20T13:34:32.379Z,24.3
2017-03-20T13:35:34.444Z,24.3
2017-03-20T13:36:36.479Z,24.4
2017-03-20T13:37:38.547Z,24.4
2017-03-20T13:38:40.610Z,24.4
2017-03-20T13:39:42.685Z,24.4
2017-03-20T13:40:44.730Z,24.4
2017-03-20T13:41:46.803Z,24.4
2017-03-20T13:42:48.851Z,24.4
2017-03-20T13:43:50.902Z,24.4
2017-03-20T13:44:52.958Z,24.3
2017-03-20T13:45:55.024Z,24.3
2017-03-20T13:46:57.072Z,24.3
2017-03-20T13:47:59.133Z,24.4
2017-03-20T13:49:01.191Z,24.3
2017-03-20T13:50:03.255Z,24.3
2017-03-20T13:51:05.318Z,24.4
2017-03-20T13:52:07.378Z,24.3
2017-03-20T13:53:09.441Z,24.3
2017-03-20T13:54:11.491Z,24.3
2017-03-20T13:55:13.546Z,24.4